sensor_id;sensor_type;location;lat;lon;timestamp;pressure;altitude;pressure_sealevel;temperature;humidity
57799;BME280;43626;53.866;30.298;2023-06-22T00:01:52;1025.1;;;19.5;59.2
57799;BME280;43626;53.866;30.298;2023-06-22T00:06:52;1025.1;;;19.5;59.1
57799;BME280;43626;53.866;30.298;2023-06-22T00:12:42;1025.1;;;19.4;59.1
57799;BME280;43626;53.866;30.298;2023-06-22T00:17:42;1025;;;19.4;59.4
57799;BME280;43626;53.866;30.298;2023-06-22T00:22:30;1024.9;;;19.4;59.3
57799;BME280;43626;53.866;30.298;2023-06-22T00:27:42;1024.9;;;19.3;59.1
57799;BME280;43626;53.866;30.298;2023-06-22T00:32:30;1024.9;;;19.2;59.2
57799;BME280;43626;53.866;30.298;2023-06-22T00:37:10;1024.9;;;19.1;59
57799;BME280;43626;53.866;30.298;2023-06-22T00:42:28;1024.9;;;19.1;59.2
57799;BME280;43626;53.866;30.298;2023-06-22T00:47:42;1024.9;;;19;59.4
57799;BME280;43626;53.866;30.298;2023-06-22T00:52:20;1024.8;;;19;59.6
57799;BME280;43626;53.866;30.298;2023-06-22T00:57:02;1024.9;;;18.9;59.7
57799;BME280;43626;53.866;30.298;2023-06-22T01:02:42;1024.9;;;18.8;60
57799;BME280;43626;53.866;30.298;2023-06-22T01:07:01;1024.9;;;18.7;60.1
57799;BME280;43626;53.866;30.298;2023-06-22T01:12:01;1024.8;;;18.7;59.9
57799;BME280;43626;53.866;30.298;2023-06-22T01:17:06;1024.8;;;18.6;60.1
57799;BME280;43626;53.866;30.298;2023-06-22T01:22:24;1024.8;;;18.6;60.1
57799;BME280;43626;53.866;30.298;2023-06-22T01:27:28;1024.8;;;18.6;60.1
57799;BME280;43626;53.866;30.298;2023-06-22T01:32:30;1024.8;;;18.5;60
57799;BME280;43626;53.866;30.298;2023-06-22T01:37:20;1024.9;;;18.5;59.9
57799;BME280;43626;53.866;30.298;2023-06-22T01:42:22;1024.9;;;18.5;59.9
57799;BME280;43626;53.866;30.298;2023-06-22T01:46:52;1024.9;;;18.4;59.8
57799;BME280;43626;53.866;30.298;2023-06-22T01:52:12;1024.9;;;18.4;59.8
57799;BME280;43626;53.866;30.298;2023-06-22T01:57:14;1024.9;;;18.3;59.8
57799;BME280;43626;53.866;30.298;2023-06-22T02:02:45;1024.9;;;18.3;60.1
57799;BME280;43626;53.866;30.298;2023-06-22T02:07:45;1024.9;;;18.2;60.2
57799;BME280;43626;53.866;30.298;2023-06-22T02:12:22;1024.9;;;18.2;60.2
57799;BME280;43626;53.866;30.298;2023-06-22T02:16:52;1024.9;;;18.2;60.6
57799;BME280;43626;53.866;30.298;2023-06-22T02:21:54;1024.9;;;18.2;60.8
57799;BME280;43626;53.866;30.298;2023-06-22T02:27:22;1024.9;;;18.3;61.1
57799;BME280;43626;53.866;30.298;2023-06-22T02:32:12;1024.8;;;18.4;61.2
57799;BME280;43626;53.866;30.298;2023-06-22T02:37:22;1024.9;;;18.4;61.1
57799;BME280;43626;53.866;30.298;2023-06-22T02:42:44;1025;;;18.4;61.1
57799;BME280;43626;53.866;30.298;2023-06-22T02:47:02;1025.1;;;18.5;61.4
57799;BME280;43626;53.866;30.298;2023-06-22T02:51:52;1025.1;;;18.5;61.5
57799;BME280;43626;53.866;30.298;2023-06-22T02:57:44;1025.1;;;18.5;62
57799;BME280;43626;53.866;30.298;2023-06-22T03:02:32;1025.1;;;18.5;62.3
57799;BME280;43626;53.866;30.298;2023-06-22T03:07:14;1025.1;;;18.7;62.7
57799;BME280;43626;53.866;30.298;2023-06-22T03:12:22;1025.1;;;18.8;62.6
57799;BME280;43626;53.866;30.298;2023-06-22T03:17:12;1025.2;;;19;62.4
57799;BME280;43626;53.866;30.298;2023-06-22T03:22:02;1025.2;;;19.2;62.1
57799;BME280;43626;53.866;30.298;2023-06-22T03:27:04;1025.2;;;19.3;61.8
57799;BME280;43626;53.866;30.298;2023-06-22T03:32:44;1025.1;;;19.5;61.6
57799;BME280;43626;53.866;30.298;2023-06-22T03:37:34;1025.1;;;19.7;61.5
57799;BME280;43626;53.866;30.298;2023-06-22T03:42:14;1025;;;19.9;61.3
57799;BME280;43626;53.866;30.298;2023-06-22T03:47:20;1025;;;20.1;61.1
57799;BME280;43626;53.866;30.298;2023-06-22T03:52:42;1025;;;20.2;60.5
57799;BME280;43626;53.866;30.298;2023-06-22T03:57:02;1024.9;;;20.3;59.9
57799;BME280;43626;53.866;30.298;2023-06-22T04:02:32;1024.9;;;20.5;59.9
57799;BME280;43626;53.866;30.298;2023-06-22T04:07:22;1024.9;;;20.6;59.5
57799;BME280;43626;53.866;30.298;2023-06-22T04:12:34;1024.9;;;20.8;58.9
57799;BME280;43626;53.866;30.298;2023-06-22T04:17:42;1024.9;;;20.9;58.3
57799;BME280;43626;53.866;30.298;2023-06-22T04:21:52;1024.9;;;21.1;58.1
57799;BME280;43626;53.866;30.298;2023-06-22T04:27:02;1024.9;;;21.3;58
57799;BME280;43626;53.866;30.298;2023-06-22T04:31:52;1024.9;;;21.5;57.7
57799;BME280;43626;53.866;30.298;2023-06-22T04:37:42;1024.9;;;21.6;56.7
57799;BME280;43626;53.866;30.298;2023-06-22T04:42:30;1024.9;;;21.8;55.8
57799;BME280;43626;53.866;30.298;2023-06-22T04:47:34;1024.9;;;21.9;55.1
57799;BME280;43626;53.866;30.298;2023-06-22T04:52:44;1024.9;;;22.1;54.1
57799;BME280;43626;53.866;30.298;2023-06-22T04:57:30;1024.9;;;22.3;53.6
57799;BME280;43626;53.866;30.298;2023-06-22T05:01:52;1024.8;;;22.4;52.3
57799;BME280;43626;53.866;30.298;2023-06-22T05:07:00;1024.8;;;22.6;52.1
57799;BME280;43626;53.866;30.298;2023-06-22T05:12:42;1024.8;;;22.8;52.1
57799;BME280;43626;53.866;30.298;2023-06-22T05:17:42;1024.8;;;23;51.4
57799;BME280;43626;53.866;30.298;2023-06-22T05:22:42;1024.7;;;23.2;50.8
57799;BME280;43626;53.866;30.298;2023-06-22T05:27:42;1024.7;;;23.4;50.7
57799;BME280;43626;53.866;30.298;2023-06-22T05:32:30;1024.7;;;23.6;50.4
57799;BME280;43626;53.866;30.298;2023-06-22T05:37:02;1024.6;;;23.8;50.1
57799;BME280;43626;53.866;30.298;2023-06-22T05:42:28;1024.6;;;23.9;50
57799;BME280;43626;53.866;30.298;2023-06-22T05:47:40;1024.7;;;24;49.9
57799;BME280;43626;53.866;30.298;2023-06-22T05:52:24;1024.6;;;24.1;50.1
57799;BME280;43626;53.866;30.298;2023-06-22T05:57:14;1024.7;;;24.2;50.4
57799;BME280;43626;53.866;30.298;2023-06-22T06:02:42;1024.7;;;24.3;50.6
57799;BME280;43626;53.866;30.298;2023-06-22T06:07:04;1024.7;;;24.4;50.5
57799;BME280;43626;53.866;30.298;2023-06-22T06:12:12;1024.7;;;24.5;50.4
57799;BME280;43626;53.866;30.298;2023-06-22T06:17:10;1024.6;;;24.7;50.5
57799;BME280;43626;53.866;30.298;2023-06-22T06:22:24;1024.6;;;24.8;49.7
57799;BME280;43626;53.866;30.298;2023-06-22T06:27:24;1024.7;;;25;47.1
57799;BME280;43626;53.866;30.298;2023-06-22T06:32:40;1024.6;;;25.1;45.3
57799;BME280;43626;53.866;30.298;2023-06-22T06:36:52;1024.5;;;25.2;44.3
57799;BME280;43626;53.866;30.298;2023-06-22T06:42:12;1024.5;;;25.4;44.1
57799;BME280;43626;53.866;30.298;2023-06-22T06:46:52;1024.4;;;25.6;43.2
57799;BME280;43626;53.866;30.298;2023-06-22T06:51:52;1024.4;;;25.7;43.2
57799;BME280;43626;53.866;30.298;2023-06-22T06:57:12;1024.4;;;25.8;42.1
57799;BME280;43626;53.866;30.298;2023-06-22T07:02:22;1024.4;;;25.9;40
57799;BME280;43626;53.866;30.298;2023-06-22T07:07:40;1024.3;;;26.1;39.1
57799;BME280;43626;53.866;30.298;2023-06-22T07:12:18;1024.3;;;26.2;39.7
57799;BME280;43626;53.866;30.298;2023-06-22T07:17:08;1024.2;;;26.4;39
57799;BME280;43626;53.866;30.298;2023-06-22T07:22:20;1024.2;;;26.6;38.9
57799;BME280;43626;53.866;30.298;2023-06-22T07:27:10;1024.2;;;26.7;38.5
57799;BME280;43626;53.866;30.298;2023-06-22T07:32:12;1024.1;;;26.9;38
57799;BME280;43626;53.866;30.298;2023-06-22T07:37:18;1024.1;;;27;37.7
57799;BME280;43626;53.866;30.298;2023-06-22T07:42:30;1024.1;;;27.2;37.2
57799;BME280;43626;53.866;30.298;2023-06-22T07:46:52;1024.1;;;27.3;36.9
57799;BME280;43626;53.866;30.298;2023-06-22T07:52:18;1024;;;27.4;36.1
57799;BME280;43626;53.866;30.298;2023-06-22T07:57:42;1024;;;27.6;34.8
57799;BME280;43626;53.866;30.298;2023-06-22T08:02:30;1024;;;27.7;34.7
57799;BME280;43626;53.866;30.298;2023-06-22T08:07:12;1024;;;27.8;34.1
57799;BME280;43626;53.866;30.298;2023-06-22T08:12:20;1024;;;27.8;33.7
57799;BME280;43626;53.866;30.298;2023-06-22T08:17:43;1024;;;27.9;33
57799;BME280;43626;53.866;30.298;2023-06-22T08:22:02;1024;;;28.1;32.7
57799;BME280;43626;53.866;30.298;2023-06-22T08:27:10;1024;;;28.2;32.7
57799;BME280;43626;53.866;30.298;2023-06-22T08:32:28;1024;;;28.3;32.8
57799;BME280;43626;53.866;30.298;2023-06-22T08:37:30;1023.9;;;28.5;32.6
57799;BME280;43626;53.866;30.298;2023-06-22T08:42:44;1023.9;;;28.6;32.2
57799;BME280;43626;53.866;30.298;2023-06-22T08:47:20;1023.9;;;28.6;32.3
57799;BME280;43626;53.866;30.298;2023-06-22T08:51:53;1023.9;;;28.6;31.8
57799;BME280;43626;53.866;30.298;2023-06-22T08:56:52;1023.8;;;28.7;30.9
57799;BME280;43626;53.866;30.298;2023-06-22T09:02:40;1023.8;;;28.8;30.5
57799;BME280;43626;53.866;30.298;2023-06-22T09:07:28;1023.7;;;28.9;31.2
57799;BME280;43626;53.866;30.298;2023-06-22T09:12:34;1023.7;;;29;30.3
57799;BME280;43626;53.866;30.298;2023-06-22T09:17:42;1023.6;;;29.2;30.5
57799;BME280;43626;53.866;30.298;2023-06-22T09:22:30;1023.6;;;29.4;30.4
57799;BME280;43626;53.866;30.298;2023-06-22T09:27:02;1023.6;;;29.4;30.5
57799;BME280;43626;53.866;30.298;2023-06-22T09:32:04;1023.5;;;29.4;30.4
57799;BME280;43626;53.866;30.298;2023-06-22T09:37:42;1023.5;;;29.5;30
57799;BME280;43626;53.866;30.298;2023-06-22T09:42:42;1023.5;;;29.6;29.7
57799;BME280;43626;53.866;30.298;2023-06-22T09:47:42;1023.4;;;29.7;29.4
57799;BME280;43626;53.866;30.298;2023-06-22T09:52:42;1023.4;;;29.8;28.1
57799;BME280;43626;53.866;30.298;2023-06-22T09:57:30;1023.4;;;29.8;28.2
57799;BME280;43626;53.866;30.298;2023-06-22T10:01:52;1023.3;;;29.9;27.9
57799;BME280;43626;53.866;30.298;2023-06-22T10:07:30;1023.3;;;29.9;27.6
57799;BME280;43626;53.866;30.298;2023-06-22T10:12:44;1023.3;;;30;27.6
57799;BME280;43626;53.866;30.298;2023-06-22T10:17:20;1023.2;;;29.8;28.3
57799;BME280;43626;53.866;30.298;2023-06-22T10:22:42;1023.1;;;29.6;29.1
57799;BME280;43626;53.866;30.298;2023-06-22T10:27:40;1023.1;;;29.4;29.6
57799;BME280;43626;53.866;30.298;2023-06-22T10:32:16;1023;;;29.7;29.7
57799;BME280;43626;53.866;30.298;2023-06-22T10:37:12;1022.9;;;29.7;29.6
57799;BME280;43626;53.866;30.298;2023-06-22T10:42:00;1022.9;;;29.7;29.1
57799;BME280;43626;53.866;30.298;2023-06-22T10:47:26;1022.9;;;29.8;28.2
57799;BME280;43626;53.866;30.298;2023-06-22T10:52:24;1022.8;;;29.6;28.5
57799;BME280;43626;53.866;30.298;2023-06-22T10:57:30;1022.8;;;29.6;29.2
57799;BME280;43626;53.866;30.298;2023-06-22T11:02:02;1022.8;;;29.4;29.8
57799;BME280;43626;53.866;30.298;2023-06-22T11:06:52;1022.8;;;29.4;30.7
57799;BME280;43626;53.866;30.298;2023-06-22T11:12:00;1022.8;;;29.3;30.2
57799;BME280;43626;53.866;30.298;2023-06-22T11:16:52;1022.7;;;29.2;29.9
57799;BME280;43626;53.866;30.298;2023-06-22T11:22:04;1022.7;;;29.2;30.5
57799;BME280;43626;53.866;30.298;2023-06-22T11:27:24;1022.6;;;29.2;30.7
57799;BME280;43626;53.866;30.298;2023-06-22T11:32:40;1022.6;;;29.5;30.5
57799;BME280;43626;53.866;30.298;2023-06-22T11:37:18;1022.6;;;29.7;30.2
57799;BME280;43626;53.866;30.298;2023-06-22T11:41:52;1022.5;;;29.8;29.8
57799;BME280;43626;53.866;30.298;2023-06-22T11:47:42;1022.5;;;29.8;29.4
57799;BME280;43626;53.866;30.298;2023-06-22T11:52:10;1022.4;;;29.9;30
57799;BME280;43626;53.866;30.298;2023-06-22T11:57:14;1022.4;;;29.9;29.9
57799;BME280;43626;53.866;30.298;2023-06-22T12:02:18;1022.4;;;30.1;29.2
57799;BME280;43626;53.866;30.298;2023-06-22T12:07:30;1022.3;;;30.4;29.2
57799;BME280;43626;53.866;30.298;2023-06-22T12:11:52;1022.3;;;30.6;28.9
57799;BME280;43626;53.866;30.298;2023-06-22T12:17:00;1022.2;;;30.9;28.5
57799;BME280;43626;53.866;30.298;2023-06-22T12:22:40;1022.2;;;31.1;27.8
57799;BME280;43626;53.866;30.298;2023-06-22T12:27:30;1022.1;;;31.4;27.6
57799;BME280;43626;53.866;30.298;2023-06-22T12:32:12;1022.1;;;31.6;27.6
57799;BME280;43626;53.866;30.298;2023-06-22T12:37:08;1022.2;;;31.5;27.4
57799;BME280;43626;53.866;30.298;2023-06-22T12:42:44;1022.1;;;31.4;27.6
57799;BME280;43626;53.866;30.298;2023-06-22T12:46:52;1022;;;31.3;28
57799;BME280;43626;53.866;30.298;2023-06-22T12:52:08;1021.9;;;30.9;28.5
57799;BME280;43626;53.866;30.298;2023-06-22T12:57:20;1021.9;;;30.4;28.9
57799;BME280;43626;53.866;30.298;2023-06-22T13:02:32;1021.9;;;30.1;29
57799;BME280;43626;53.866;30.298;2023-06-22T13:07:44;1021.8;;;30.1;29.5
57799;BME280;43626;53.866;30.298;2023-06-22T13:12:34;1021.8;;;30.2;29.4
57799;BME280;43626;53.866;30.298;2023-06-22T13:16:52;1021.8;;;30.3;29.2
57799;BME280;43626;53.866;30.298;2023-06-22T13:21:52;1021.8;;;30.2;29.4
57799;BME280;43626;53.866;30.298;2023-06-22T13:27:22;1021.8;;;30.2;29.8
57799;BME280;43626;53.866;30.298;2023-06-22T13:32:30;1021.8;;;30.2;30.1
57799;BME280;43626;53.866;30.298;2023-06-22T13:37:34;1021.8;;;30.1;30.5
57799;BME280;43626;53.866;30.298;2023-06-22T13:42:44;1021.8;;;30.1;30.4
57799;BME280;43626;53.866;30.298;2023-06-22T13:47:28;1021.8;;;30;30.8
57799;BME280;43626;53.866;30.298;2023-06-22T13:52:00;1021.9;;;29.8;31.6
57799;BME280;43626;53.866;30.298;2023-06-22T13:57:00;1021.9;;;29.6;32.5
57799;BME280;43626;53.866;30.298;2023-06-22T14:02:44;1021.9;;;29.6;32.1
57799;BME280;43626;53.866;30.298;2023-06-22T14:07:40;1021.9;;;29.6;31.2
57799;BME280;43626;53.866;30.298;2023-06-22T14:12:40;1021.8;;;29.6;30.8
57799;BME280;43626;53.866;30.298;2023-06-22T14:17:32;1021.8;;;29.5;30.8
57799;BME280;43626;53.866;30.298;2023-06-22T14:22:28;1021.8;;;29.4;31.1
57799;BME280;43626;53.866;30.298;2023-06-22T14:27:25;1021.7;;;29.3;30.9
57799;BME280;43626;53.866;30.298;2023-06-22T14:32:10;1021.7;;;29.1;31.1
57799;BME280;43626;53.866;30.298;2023-06-22T14:37:44;1021.7;;;29;31.3
57799;BME280;43626;53.866;30.298;2023-06-22T14:42:24;1021.6;;;29;31.6
57799;BME280;43626;53.866;30.298;2023-06-22T14:47:12;1021.5;;;28.9;32
57799;BME280;43626;53.866;30.298;2023-06-22T14:52:44;1021.5;;;28.8;32.6
57799;BME280;43626;53.866;30.298;2023-06-22T14:57:02;1021.4;;;28.7;33
57799;BME280;43626;53.866;30.298;2023-06-22T15:02:00;1021.4;;;28.7;33.5
57799;BME280;43626;53.866;30.298;2023-06-22T15:06:52;1021.5;;;28.7;33.6
57799;BME280;43626;53.866;30.298;2023-06-22T15:12:24;1021.5;;;28.6;33.3
57799;BME280;43626;53.866;30.298;2023-06-22T15:17:24;1021.5;;;28.4;33.6
57799;BME280;43626;53.866;30.298;2023-06-22T15:22:28;1021.6;;;28.3;34.2
57799;BME280;43626;53.866;30.298;2023-06-22T15:27:44;1021.6;;;28.1;34.6
57799;BME280;43626;53.866;30.298;2023-06-22T15:32:00;1021.6;;;27.9;35.1
57799;BME280;43626;53.866;30.298;2023-06-22T15:37:00;1021.5;;;27.8;35.6
57799;BME280;43626;53.866;30.298;2023-06-22T15:41:52;1021.5;;;27.7;36.7
57799;BME280;43626;53.866;30.298;2023-06-22T15:47:12;1021.5;;;27.5;37.7
57799;BME280;43626;53.866;30.298;2023-06-22T15:52:43;1021.6;;;27.3;38.3
57799;BME280;43626;53.866;30.298;2023-06-22T15:57:44;1021.6;;;27.2;38.9
57799;BME280;43626;53.866;30.298;2023-06-22T16:02:18;1021.6;;;27.1;39
57799;BME280;43626;53.866;30.298;2023-06-22T16:07:03;1021.6;;;27.1;39.1
57799;BME280;43626;53.866;30.298;2023-06-22T16:11:55;1021.6;;;27.1;38.9
57799;BME280;43626;53.866;30.298;2023-06-22T16:17:10;1021.6;;;27.1;39.3
57799;BME280;43626;53.866;30.298;2023-06-22T16:22:02;1021.8;;;27.1;39.1
57799;BME280;43626;53.866;30.298;2023-06-22T16:27:30;1022;;;26.9;40.1
57799;BME280;43626;53.866;30.298;2023-06-22T16:32:52;1022;;;26.5;41.2
57799;BME280;43626;53.866;30.298;2023-06-22T16:37:00;1022;;;26.1;42.3
57799;BME280;43626;53.866;30.298;2023-06-22T16:41:52;1021.9;;;25.8;43.6
57799;BME280;43626;53.866;30.298;2023-06-22T16:47:45;1021.9;;;25.6;44.4
57799;BME280;43626;53.866;30.298;2023-06-22T16:52:34;1021.9;;;25.5;44.9
57799;BME280;43626;53.866;30.298;2023-06-22T16:57:14;1021.9;;;25.4;45.2
57799;BME280;43626;53.866;30.298;2023-06-22T17:02:00;1021.8;;;25.1;45.6
57799;BME280;43626;53.866;30.298;2023-06-22T17:07:45;1021.8;;;25;45.6
57799;BME280;43626;53.866;30.298;2023-06-22T17:12:12;1021.8;;;25;45.7
57799;BME280;43626;53.866;30.298;2023-06-22T17:17:17;1021.7;;;24.9;45.9
57799;BME280;43626;53.866;30.298;2023-06-22T17:22:28;1021.7;;;24.9;46.1
57799;BME280;43626;53.866;30.298;2023-06-22T17:27:33;1021.7;;;25;46.2
57799;BME280;43626;53.866;30.298;2023-06-22T17:32:45;1021.7;;;25;46.4
57799;BME280;43626;53.866;30.298;2023-06-22T17:36:52;1021.8;;;25;46.8
57799;BME280;43626;53.866;30.298;2023-06-22T17:42:10;1021.7;;;25;47.3
57799;BME280;43626;53.866;30.298;2023-06-22T17:47:00;1021.7;;;25;47.7
57799;BME280;43626;53.866;30.298;2023-06-22T17:52:48;1021.7;;;25;47.9
57799;BME280;43626;53.866;30.298;2023-06-22T17:57:34;1021.7;;;25;48.1
57799;BME280;43626;53.866;30.298;2023-06-22T18:02:14;1021.6;;;24.9;48.4
57799;BME280;43626;53.866;30.298;2023-06-22T18:07:40;1021.6;;;24.9;48.5
57799;BME280;43626;53.866;30.298;2023-06-22T18:12:31;1021.5;;;24.9;48.5
57799;BME280;43626;53.866;30.298;2023-06-22T18:17:10;1021.5;;;24.9;48.8
57799;BME280;43626;53.866;30.298;2023-06-22T18:22:13;1021.4;;;24.9;49
57799;BME280;43626;53.866;30.298;2023-06-22T18:27:40;1021.4;;;24.8;49.2
57799;BME280;43626;53.866;30.298;2023-06-22T18:32:41;1021.5;;;24.8;49.4
57799;BME280;43626;53.866;30.298;2023-06-22T18:37:41;1021.5;;;24.7;50.2
57799;BME280;43626;53.866;30.298;2023-06-22T18:42:43;1021.4;;;24.7;50.7
57799;BME280;43626;53.866;30.298;2023-06-22T18:47:29;1021.4;;;24.6;50.9
57799;BME280;43626;53.866;30.298;2023-06-22T18:52:41;1021.4;;;24.5;51.2
57799;BME280;43626;53.866;30.298;2023-06-22T18:57:29;1021.3;;;24.5;51.3
57799;BME280;43626;53.866;30.298;2023-06-22T19:02:42;1021.3;;;24.4;51.4
57799;BME280;43626;53.866;30.298;2023-06-22T19:07:21;1021.3;;;24.4;51.4
57799;BME280;43626;53.866;30.298;2023-06-22T19:12:16;1021.3;;;24.3;51.4
57799;BME280;43626;53.866;30.298;2023-06-22T19:17:41;1021.3;;;24.3;51.6
57799;BME280;43626;53.866;30.298;2023-06-22T19:21:57;1021.4;;;24.3;51.8
57799;BME280;43626;53.866;30.298;2023-06-22T19:27:01;1021.4;;;24.3;51.8
57799;BME280;43626;53.866;30.298;2023-06-22T19:31:53;1021.4;;;24.2;52
57799;BME280;43626;53.866;30.298;2023-06-22T19:37:23;1021.3;;;24.2;52.3
57799;BME280;43626;53.866;30.298;2023-06-22T19:42:23;1021.3;;;24.2;52.5
57799;BME280;43626;53.866;30.298;2023-06-22T19:47:29;1021.2;;;24.1;52.6
57799;BME280;43626;53.866;30.298;2023-06-22T19:52:19;1021.2;;;24.1;52.6
57799;BME280;43626;53.866;30.298;2023-06-22T19:57:01;1021.1;;;24;52.7
57799;BME280;43626;53.866;30.298;2023-06-22T20:01:53;1021.1;;;24;52.6
57799;BME280;43626;53.866;30.298;2023-06-22T20:07:33;1021.1;;;24;52.5
57799;BME280;43626;53.866;30.298;2023-06-22T20:12:22;1021.1;;;24;52.3
57799;BME280;43626;53.866;30.298;2023-06-22T20:17:15;1021.1;;;24;52.3
57799;BME280;43626;53.866;30.298;2023-06-22T20:22:41;1021;;;24;52.3
57799;BME280;43626;53.866;30.298;2023-06-22T20:27:19;1021.1;;;23.9;52.4
57799;BME280;43626;53.866;30.298;2023-06-22T20:32:08;1021;;;23.9;52.7
57799;BME280;43626;53.866;30.298;2023-06-22T20:37:13;1021;;;23.9;53.2
57799;BME280;43626;53.866;30.298;2023-06-22T20:42:09;1021;;;23.8;53.3
57799;BME280;43626;53.866;30.298;2023-06-22T20:47:13;1021;;;23.8;54.6
57799;BME280;43626;53.866;30.298;2023-06-22T20:52:01;1021;;;23.5;56.3
57799;BME280;43626;53.866;30.298;2023-06-22T20:57:31;1021;;;23.4;56.9
57799;BME280;43626;53.866;30.298;2023-06-22T21:02:09;1021;;;23.4;57.1
57799;BME280;43626;53.866;30.298;2023-06-22T21:07:19;1020.9;;;23.3;57.8
57799;BME280;43626;53.866;30.298;2023-06-22T21:12:43;1020.8;;;23.3;57.7
57799;BME280;43626;53.866;30.298;2023-06-22T21:17:33;1020.8;;;23.4;57.6
57799;BME280;43626;53.866;30.298;2023-06-22T21:21:53;1020.8;;;23.4;57.5
57799;BME280;43626;53.866;30.298;2023-06-22T21:27:19;1020.7;;;23.4;57.5
57799;BME280;43626;53.866;30.298;2023-06-22T21:32:43;1020.6;;;23.4;57.8
57799;BME280;43626;53.866;30.298;2023-06-22T21:36:53;1020.6;;;23.4;58
57799;BME280;43626;53.866;30.298;2023-06-22T21:41:59;1020.6;;;23.4;57.7
57799;BME280;43626;53.866;30.298;2023-06-22T21:47:21;1020.5;;;23.4;57.5
57799;BME280;43626;53.866;30.298;2023-06-22T21:52:33;1020.4;;;23.4;57.4
57799;BME280;43626;53.866;30.298;2023-06-22T21:57:43;1020.4;;;23.4;57.2
57799;BME280;43626;53.866;30.298;2023-06-22T22:01:51;1020.3;;;23.3;57
57799;BME280;43626;53.866;30.298;2023-06-22T22:07:19;1020.3;;;23.3;57.1
57799;BME280;43626;53.866;30.298;2023-06-22T22:12:01;1020.4;;;23.2;56.8
57799;BME280;43626;53.866;30.298;2023-06-22T22:17:43;1020.4;;;23.1;56.8
57799;BME280;43626;53.866;30.298;2023-06-22T22:22:27;1020.4;;;22.9;57
57799;BME280;43626;53.866;30.298;2023-06-22T22:27:31;1020.3;;;22.9;57.1
57799;BME280;43626;53.866;30.298;2023-06-22T22:32:41;1020.3;;;22.8;57.3
57799;BME280;43626;53.866;30.298;2023-06-22T22:37:41;1020.2;;;22.7;57
57799;BME280;43626;53.866;30.298;2023-06-22T22:42:43;1020.1;;;22.7;56.5
57799;BME280;43626;53.866;30.298;2023-06-22T22:47:01;1020.1;;;22.6;56.6
57799;BME280;43626;53.866;30.298;2023-06-22T22:52:43;1020.1;;;22.5;56.9
57799;BME280;43626;53.866;30.298;2023-06-22T22:57:43;1020.2;;;22.5;56.9
57799;BME280;43626;53.866;30.298;2023-06-22T23:02:43;1020.2;;;22.5;56.9
57799;BME280;43626;53.866;30.298;2023-06-22T23:07:33;1020.2;;;22.5;56.9
57799;BME280;43626;53.866;30.298;2023-06-22T23:12:27;1020.2;;;22.4;57
57799;BME280;43626;53.866;30.298;2023-06-22T23:17:09;1020.2;;;22.4;57.1
57799;BME280;43626;53.866;30.298;2023-06-22T23:22:29;1020.3;;;22.4;57.1
57799;BME280;43626;53.866;30.298;2023-06-22T23:27:41;1020.3;;;22.4;57.5
57799;BME280;43626;53.866;30.298;2023-06-22T23:32:03;1020.2;;;22.3;57.8
57799;BME280;43626;53.866;30.298;2023-06-22T23:37:01;1020.2;;;22.3;58.2
57799;BME280;43626;53.866;30.298;2023-06-22T23:42:41;1020.2;;;22.3;58.3
57799;BME280;43626;53.866;30.298;2023-06-22T23:47:13;1020.2;;;22.3;58.5
57799;BME280;43626;53.866;30.298;2023-06-22T23:52:09;1020.2;;;22.3;58.6
57799;BME280;43626;53.866;30.298;2023-06-22T23:56:53;1020.2;;;22.3;58.6
